Time;durP1;ratioP1;P1;durP2;ratioP2;P2;SDS_P1;SDS_P2;PMS_P1;PMS_P2;Temp;Humidity;BMP_temperature;BMP_pressure;BME280_temperature;BME280_humidity;BME280_pressure;Samples;Min_cycle;Max_cycle;Signal;HPM_P1;HPM_P2
2022/09/08 00:00:10;;;;;;;1.58;1.20;;;16.40;99.90;;;;;;5070192;28;20051;-35
2022/09/08 00:02:36;;;;;;;2.10;1.20;;;16.40;99.90;;;;;;5070396;28;20032;-34
2022/09/08 00:05:04;;;;;;;2.10;1.20;;;16.40;99.90;;;;;;5071122;28;20637;-35
2022/09/08 00:07:32;;;;;;;3.33;1.77;;;16.30;99.90;;;;;;5072202;28;20496;-32
2022/09/08 00:09:58;;;;;;;3.47;1.20;;;16.30;99.90;;;;;;5073494;28;20028;-33
2022/09/08 00:12:24;;;;;;;1.80;1.20;;;16.40;99.90;;;;;;5070807;28;20043;-34
2022/09/08 00:14:51;;;;;;;3.10;1.23;;;16.50;99.90;;;;;;5072057;28;20149;-31
2022/09/08 00:17:17;;;;;;;1.67;0.98;;;16.60;99.90;;;;;;5072176;28;20038;-37
2022/09/08 00:19:42;;;;;;;1.20;1.10;;;16.70;99.90;;;;;;5069432;28;20036;-33
2022/09/08 00:22:08;;;;;;;3.05;1.02;;;16.70;99.90;;;;;;5072700;28;20063;-32
2022/09/08 00:24:33;;;;;;;1.00;1.00;;;16.70;99.90;;;;;;5071778;28;20044;-34
2022/09/08 00:26:59;;;;;;;1.13;1.05;;;16.70;99.90;;;;;;5070563;28;20050;-35
2022/09/08 00:29:24;;;;;;;1.20;1.10;;;16.50;99.90;;;;;;5072974;28;20040;-34
2022/09/08 00:31:50;;;;;;;1.25;1.15;;;16.40;99.90;;;;;;5070559;28;20031;-32
2022/09/08 00:34:15;;;;;;;1.75;1.30;;;16.20;99.90;;;;;;5072307;28;20089;-34
2022/09/08 00:36:41;;;;;;;1.50;1.10;;;16.40;99.90;;;;;;5070586;28;20032;-34
2022/09/08 00:39:06;;;;;;;3.10;1.38;;;16.40;99.90;;;;;;5071324;28;20883;-33
2022/09/08 00:41:33;;;;;;;1.33;1.10;;;16.40;99.90;;;;;;5055845;28;20029;-33
2022/09/08 00:43:59;;;;;;;1.08;1.00;;;16.40;99.90;;;;;;5074640;28;20504;-33
2022/09/08 00:46:31;;;;;;;1.55;0.85;;;16.50;99.90;;;;;;5070773;28;20032;-36
2022/09/08 00:49:19;;;;;;;2.65;1.23;;;16.50;99.90;;;;;;5066477;28;20504;-34
2022/09/08 00:51:54;;;;;;;1.00;1.00;;;16.50;99.90;;;;;;5069651;28;20057;-32
2022/09/08 00:54:20;;;;;;;1.00;1.00;;;16.40;99.90;;;;;;5071580;28;20067;-34
2022/09/08 00:56:47;;;;;;;1.20;1.10;;;16.30;99.90;;;;;;5074841;28;20127;-37
2022/09/08 00:59:17;;;;;;;2.03;1.20;;;16.20;99.90;;;;;;5073212;28;20028;-32
2022/09/08 01:01:42;;;;;;;1.00;1.00;;;16.40;99.90;;;;;;5072901;28;20052;-41
2022/09/08 01:04:09;;;;;;;1.95;0.90;;;16.40;99.90;;;;;;5071132;28;20057;-41
2022/09/08 01:12:59;;;;;;;2.10;1.05;;;16.40;99.90;;;;;;5072671;22;20111;-79
2022/09/08 01:15:27;;;;;;;0.98;0.93;;;16.40;99.90;;;;;;4985461;28;20035;-79
2022/09/08 01:17:55;;;;;;;2.20;1.15;;;16.40;99.90;;;;;;4998436;28;20037;-80
2022/09/08 01:20:27;;;;;;;1.27;1.15;;;16.40;99.90;;;;;;4986261;28;20034;-79
2022/09/08 01:23:31;;;;;;;1.23;1.00;;;16.60;99.90;;;;;;4984786;28;20152;-79
2022/09/08 01:26:19;;;;;;;1.83;1.05;;;16.60;99.90;;;;;;5001686;28;20144;-80
2022/09/08 01:28:51;;;;;;;2.28;1.05;;;16.70;99.90;;;;;;5003672;28;20423;-80
2022/09/08 01:31:17;;;;;;;3.33;1.05;;;16.70;99.90;;;;;;5002359;28;20050;-80
2022/09/08 01:33:43;;;;;;;0.98;0.90;;;16.50;99.90;;;;;;5003910;28;20037;-80
2022/09/08 01:36:11;;;;;;;1.77;1.10;;;16.40;99.90;;;;;;5004286;28;20037;-79
2022/09/08 01:38:38;;;;;;;0.98;0.95;;;16.20;99.90;;;;;;5004003;28;20050;-79
2022/09/08 01:41:04;;;;;;;1.42;1.10;;;16.10;99.90;;;;;;5007785;28;20644;-79
2022/09/08 01:43:31;;;;;;;2.08;1.00;;;16.00;99.90;;;;;;5003983;28;20117;-79
2022/09/08 01:45:58;;;;;;;2.05;0.90;;;16.20;99.90;;;;;;5002955;28;20416;-80
2022/09/08 01:48:24;;;;;;;1.73;1.30;;;16.20;99.90;;;;;;5006608;28;20025;-80
2022/09/08 01:50:51;;;;;;;3.50;1.10;;;16.20;99.90;;;;;;5003136;28;20065;-81
2022/09/08 01:53:16;;;;;;;1.80;1.70;;;16.20;99.90;;;;;;5000372;28;20424;-81
2022/09/08 01:55:44;;;;;;;3.00;1.55;;;16.20;99.90;;;;;;5008176;28;20052;-80
2022/09/08 01:58:27;;;;;;;1.88;1.48;;;16.30;99.90;;;;;;5009549;28;20042;-80
2022/09/08 02:00:53;;;;;;;1.58;1.40;;;16.20;99.90;;;;;;5002750;28;20053;-80
2022/09/08 02:03:31;;;;;;;3.20;1.67;;;16.30;99.90;;;;;;5009771;28;20042;-80
2022/09/08 02:06:01;;;;;;;;;;;16.40;99.90;;;;;;4988319;28;20034;-80
2022/09/08 02:08:27;;;;;;;1.73;1.63;;;16.30;99.90;;;;;;5006427;28;19955;-80
2022/09/08 02:10:54;;;;;;;3.53;1.70;;;16.40;99.90;;;;;;5009197;28;20080;-79
2022/09/08 02:13:20;;;;;;;3.65;1.80;;;16.40;99.90;;;;;;4990892;28;20455;-81
2022/09/08 02:15:51;;;;;;;1.60;1.42;;;16.40;99.90;;;;;;5005666;28;20101;-80
2022/09/08 02:18:16;;;;;;;1.90;1.30;;;16.40;99.90;;;;;;5007255;28;20029;-81
2022/09/08 02:20:42;;;;;;;2.10;1.50;;;16.40;99.90;;;;;;5012214;28;20109;-81
2022/09/08 02:23:08;;;;;;;1.65;1.40;;;16.40;99.90;;;;;;5003992;28;20054;-81
2022/09/08 02:25:33;;;;;;;1.55;1.45;;;16.40;99.90;;;;;;5003862;28;20076;-81
2022/09/08 02:27:59;;;;;;;2.47;1.50;;;16.50;99.90;;;;;;5008904;28;20042;-81
2022/09/08 02:30:24;;;;;;;1.30;1.20;;;16.40;99.90;;;;;;5005350;28;20034;-81
2022/09/08 02:32:50;;;;;;;1.95;1.20;;;16.40;99.90;;;;;;5004390;28;20476;-82
2022/09/08 02:35:40;;;;;;;1.30;1.20;;;16.50;99.90;;;;;;5004391;28;20033;-82
2022/09/08 02:38:05;;;;;;;2.67;1.02;;;16.50;99.90;;;;;;4984938;28;20107;-81
2022/09/08 02:40:31;;;;;;;1.55;1.10;;;16.50;99.90;;;;;;5002850;28;20678;-82
2022/09/08 02:42:59;;;;;;;3.03;1.58;;;16.50;99.90;;;;;;4986406;28;20560;-82
2022/09/08 02:45:25;;;;;;;2.00;1.27;;;16.50;99.90;;;;;;5002125;28;20030;-80
2022/09/08 02:47:51;;;;;;;1.27;1.17;;;16.50;99.90;;;;;;5002733;28;20048;-82
2022/09/08 02:50:17;;;;;;;1.05;0.95;;;16.50;99.90;;;;;;5003265;28;20042;-81
2022/09/08 02:52:43;;;;;;;1.83;1.20;;;16.20;99.90;;;;;;5004772;28;20030;-82
2022/09/08 02:55:15;;;;;;;0.93;0.93;;;16.20;99.90;;;;;;5004346;28;20041;-82
2022/09/08 02:57:40;;;;;;;1.50;1.20;;;16.20;99.90;;;;;;5003757;28;20084;-81
2022/09/08 03:00:08;;;;;;;1.42;1.33;;;16.20;99.90;;;;;;5005828;28;20049;-81
2022/09/08 03:02:33;;;;;;;1.25;1.13;;;16.20;99.90;;;;;;5000474;28;20045;-82
2022/09/08 03:04:59;;;;;;;1.80;1.25;;;16.30;99.90;;;;;;5004991;28;20034;-82
2022/09/08 03:07:25;;;;;;;2.08;1.40;;;16.20;99.90;;;;;;5004513;28;20034;-82
2022/09/08 03:09:51;;;;;;;1.10;1.00;;;16.20;99.90;;;;;;5005729;28;20062;-81
2022/09/08 03:12:26;;;;;;;1.83;1.25;;;16.30;99.90;;;;;;5001783;28;20038;-82
2022/09/08 03:14:54;;;;;;;1.92;1.80;;;16.20;99.90;;;;;;5004862;28;20045;-82
2022/09/08 03:17:21;;;;;;;1.48;1.15;;;16.20;99.90;;;;;;5004493;28;20033;-82
2022/09/08 03:19:47;;;;;;;2.53;1.20;;;16.20;99.90;;;;;;4988862;28;20040;-82
2022/09/08 03:22:13;;;;;;;2.13;1.27;;;16.20;99.90;;;;;;5007052;28;20080;-82
2022/09/08 03:24:38;;;;;;;1.15;1.05;;;16.30;99.90;;;;;;5000961;28;20026;-82
2022/09/08 03:27:04;;;;;;;2.05;1.10;;;16.30;99.90;;;;;;5003115;28;20044;-82
2022/09/08 03:29:31;;;;;;;2.20;1.33;;;16.30;99.90;;;;;;5008158;28;20050;-82
2022/09/08 03:31:58;;;;;;;3.67;1.23;;;16.20;99.90;;;;;;5003625;28;20200;-82
2022/09/08 03:34:25;;;;;;;1.77;1.13;;;16.30;99.90;;;;;;4986602;28;21944;-82
2022/09/08 03:36:57;;;;;;;2.72;1.10;;;16.30;99.90;;;;;;5001686;28;20042;-82
2022/09/08 03:39:23;;;;;;;1.33;1.23;;;16.20;99.90;;;;;;5009852;28;20100;-82
2022/09/08 03:41:49;;;;;;;2.28;1.20;;;16.20;99.90;;;;;;5005598;28;20033;-82
2022/09/08 03:44:14;;;;;;;2.15;1.38;;;16.10;99.90;;;;;;5005501;28;20079;-82
2022/09/08 03:46:40;;;;;;;2.08;1.30;;;16.20;99.90;;;;;;4998931;28;20026;-81
2022/09/08 03:49:06;;;;;;;2.75;1.15;;;16.20;99.90;;;;;;5002583;28;20042;-82
2022/09/08 03:51:32;;;;;;;4.15;1.30;;;16.10;99.90;;;;;;5000979;28;20018;-81
2022/09/08 03:56:44;;;;;;;3.03;1.48;;;16.10;99.90;;;;;;5003949;28;20067;-82
2022/09/08 03:59:10;;;;;;;1.17;1.17;;;16.10;99.90;;;;;;5001956;28;20084;-81
2022/09/08 04:01:36;;;;;;;1.23;1.10;;;16.10;99.90;;;;;;5000848;28;20462;-81
2022/09/08 04:04:03;;;;;;;1.40;1.30;;;16.10;99.90;;;;;;5002517;28;20065;-81
2022/09/08 04:06:29;;;;;;;1.95;1.23;;;16.20;99.90;;;;;;4999677;28;20088;-81
2022/09/08 04:08:54;;;;;;;1.00;1.00;;;16.10;99.90;;;;;;4981851;28;20033;-81
2022/09/08 04:11:24;;;;;;;2.20;1.30;;;16.20;99.90;;;;;;4998905;28;20041;-82
2022/09/08 04:14:16;;;;;;;1.45;1.23;;;16.10;99.90;;;;;;5008283;28;20049;-82
2022/09/08 04:16:42;;;;;;;3.00;1.60;;;16.20;99.90;;;;;;4986443;28;20042;-81
2022/09/08 04:19:08;;;;;;;1.73;1.30;;;16.20;99.90;;;;;;5002838;28;20034;-81
2022/09/08 04:21:34;;;;;;;1.38;1.20;;;16.30;99.90;;;;;;5001106;28;20379;-82
2022/09/08 04:24:00;;;;;;;2.13;1.40;;;16.30;99.90;;;;;;5003597;28;20037;-82
2022/09/08 04:26:27;;;;;;;4.43;1.63;;;16.30;99.90;;;;;;5000578;28;20037;-81
2022/09/08 04:28:54;;;;;;;2.45;1.30;;;16.30;99.90;;;;;;5001089;28;20030;-82
2022/09/08 04:31:20;;;;;;;2.22;1.40;;;16.30;99.90;;;;;;4995004;28;20420;-82
2022/09/08 04:33:46;;;;;;;1.42;1.30;;;16.10;99.90;;;;;;4994664;28;20121;-81
2022/09/08 04:36:17;;;;;;;1.65;1.42;;;16.10;99.90;;;;;;5007754;28;20109;-81
2022/09/08 04:38:43;;;;;;;1.35;1.25;;;16.00;99.90;;;;;;4984584;28;20484;-82
2022/09/08 04:41:12;;;;;;;2.90;1.20;;;16.10;99.90;;;;;;5004094;28;20040;-82
2022/09/08 04:43:38;;;;;;;1.70;1.20;;;16.10;99.90;;;;;;5003454;28;20445;-82
2022/09/08 04:46:13;;;;;;;1.65;1.30;;;16.10;99.90;;;;;;4987834;28;21496;-82
2022/09/08 04:48:43;;;;;;;1.80;1.27;;;16.20;99.90;;;;;;4998929;28;20358;-82
2022/09/08 04:51:14;;;;;;;1.58;1.13;;;16.20;99.90;;;;;;5003252;28;20037;-81
2022/09/08 04:53:39;;;;;;;2.38;1.50;;;16.20;99.90;;;;;;5003359;28;20038;-82
2022/09/08 04:56:07;;;;;;;4.22;1.40;;;16.10;99.90;;;;;;4998423;28;20117;-82
2022/09/08 04:58:35;;;;;;;4.20;1.53;;;16.20;99.90;;;;;;4999249;28;20049;-82
2022/09/08 05:01:09;;;;;;;2.78;1.35;;;16.20;99.90;;;;;;5007736;28;20045;-82
2022/09/08 05:03:35;;;;;;;1.73;1.38;;;16.20;99.90;;;;;;5004007;28;20033;-82
2022/09/08 05:06:06;;;;;;;2.95;1.40;;;16.10;99.90;;;;;;5004873;28;20038;-82
2022/09/08 05:08:35;;;;;;;4.53;1.40;;;16.10;99.90;;;;;;5004823;28;20061;-82
2022/09/08 05:11:02;;;;;;;1.10;1.00;;;16.00;99.90;;;;;;5001325;28;20042;-82
2022/09/08 05:13:29;;;;;;;1.95;1.23;;;16.00;99.90;;;;;;5009387;28;20065;-81
2022/09/08 05:16:13;;;;;;;3.15;1.40;;;16.00;99.90;;;;;;5005398;28;20088;-82
2022/09/08 05:18:40;;;;;;;1.33;1.17;;;16.10;99.90;;;;;;5002368;28;20573;-82
2022/09/08 05:21:07;;;;;;;3.42;1.20;;;16.10;99.90;;;;;;5002388;28;20076;-83
2022/09/08 05:23:34;;;;;;;2.35;1.40;;;16.00;99.90;;;;;;4990906;28;20040;-82
2022/09/08 05:26:04;;;;;;;1.52;1.00;;;16.10;99.90;;;;;;5006342;28;20038;-81
2022/09/08 05:28:32;;;;;;;2.05;0.85;;;16.10;99.90;;;;;;4990719;28;20034;-82
2022/09/08 05:31:00;;;;;;;4.63;1.20;;;16.00;99.90;;;;;;4988076;28;20053;-81
2022/09/08 05:33:26;;;;;;;1.42;1.33;;;16.10;99.90;;;;;;4998514;28;20072;-82
2022/09/08 05:35:52;;;;;;;0.98;0.98;;;16.10;99.90;;;;;;5009641;28;20112;-83
2022/09/08 05:38:19;;;;;;;0.90;0.90;;;16.10;99.90;;;;;;5003514;28;20030;-83
2022/09/08 05:40:45;;;;;;;1.20;1.00;;;16.10;99.90;;;;;;5003461;28;20022;-83
2022/09/08 05:43:11;;;;;;;0.95;0.95;;;16.10;99.90;;;;;;5000400;28;20031;-83
2022/09/08 05:45:37;;;;;;;0.98;0.90;;;16.00;99.90;;;;;;5004313;28;20502;-80
2022/09/08 05:48:03;;;;;;;2.35;1.00;;;16.00;99.90;;;;;;5006534;28;20069;-80
2022/09/08 05:50:34;;;;;;;1.50;0.98;;;16.00;99.90;;;;;;5004012;28;20073;-80
2022/09/08 05:53:01;;;;;;;0.77;0.70;;;16.00;99.90;;;;;;5000626;28;20505;-80
2022/09/08 05:55:28;;;;;;;0.98;0.80;;;16.00;99.90;;;;;;5003399;28;20069;-80
2022/09/08 05:57:57;;;;;;;1.33;0.98;;;16.00;99.90;;;;;;5002827;28;20084;-80
2022/09/08 06:00:23;;;;;;;1.70;1.08;;;16.00;99.90;;;;;;4986608;28;20084;-79
2022/09/08 06:02:52;;;;;;;1.98;1.10;;;16.00;99.90;;;;;;5004849;28;20045;-81
2022/09/08 06:05:19;;;;;;;1.67;0.93;;;16.00;99.90;;;;;;5008413;28;20049;-81
2022/09/08 06:07:47;;;;;;;2.27;1.00;;;16.00;99.90;;;;;;4999202;28;20722;-81
2022/09/08 06:10:13;;;;;;;1.00;0.85;;;16.00;99.90;;;;;;5010263;28;20133;-81
2022/09/08 06:12:39;;;;;;;1.77;1.00;;;16.00;99.90;;;;;;5009899;28;20054;-82
2022/09/08 06:15:09;;;;;;;2.28;0.95;;;16.10;99.90;;;;;;5008856;28;20030;-81
2022/09/08 06:17:35;;;;;;;1.02;0.90;;;16.10;99.90;;;;;;5005924;28;20033;-83
2022/09/08 06:20:02;;;;;;;1.00;0.98;;;16.00;99.90;;;;;;5008041;28;20489;-81
2022/09/08 06:22:33;;;;;;;0.82;0.80;;;15.90;99.90;;;;;;4993160;28;20034;-81
2022/09/08 06:25:02;;;;;;;0.68;0.68;;;16.00;99.90;;;;;;5010027;28;20123;-82
2022/09/08 06:27:49;;;;;;;0.80;0.80;;;15.90;99.90;;;;;;5006190;28;20121;-81
2022/09/08 06:30:18;;;;;;;3.03;0.90;;;15.90;99.90;;;;;;5008124;28;20026;-82
2022/09/08 06:32:50;;;;;;;0.95;0.82;;;15.90;99.90;;;;;;4995959;28;20029;-81
2022/09/08 06:35:41;;;;;;;1.15;1.10;;;15.80;99.90;;;;;;5007045;28;20037;-81
2022/09/08 06:38:15;;;;;;;1.00;1.00;;;15.90;99.90;;;;;;5006967;28;20111;-83
2022/09/08 06:41:00;;;;;;;1.20;1.10;;;15.80;99.90;;;;;;5013026;28;20033;-81
2022/09/08 06:43:46;;;;;;;0.55;0.55;;;15.80;99.90;;;;;;5013096;28;20072;-81
2022/09/08 06:46:31;;;;;;;3.45;0.85;;;15.80;99.90;;;;;;5013337;28;20044;-81
2022/09/08 06:48:58;;;;;;;0.95;0.85;;;15.80;99.90;;;;;;5006592;28;20176;-80
2022/09/08 06:51:55;;;;;;;0.90;0.90;;;15.80;99.90;;;;;;5012320;28;20049;-80
2022/09/08 06:54:38;;;;;;;2.53;1.10;;;15.80;99.90;;;;;;5005383;28;20033;-80
2022/09/08 06:57:24;;;;;;;1.20;1.10;;;15.80;99.90;;;;;;5011084;28;20285;-80
2022/09/08 07:00:38;;;;;;;2.05;1.10;;;15.80;99.90;;;;;;5010677;28;20033;-80
2022/09/08 07:03:19;;;;;;;2.55;1.00;;;15.80;99.90;;;;;;4982398;28;20093;-80
2022/09/08 07:06:04;;;;;;;1.23;1.00;;;15.80;99.90;;;;;;5003887;28;20650;-80
2022/09/08 07:09:07;;;;;;;1.55;0.90;;;15.80;99.90;;;;;;4984338;28;20496;-80
2022/09/08 07:11:56;;;;;;;1.48;0.77;;;15.80;99.90;;;;;;5009675;28;20561;-80
2022/09/08 07:14:54;;;;;;;1.20;0.90;;;15.80;99.90;;;;;;5009296;28;20125;-79
2022/09/08 07:17:20;;;;;;;0.63;0.63;;;15.90;99.90;;;;;;4995820;28;20076;-80
2022/09/08 07:19:52;;;;;;;2.10;0.88;;;15.90;99.90;;;;;;5003685;28;20363;-80
2022/09/08 07:22:48;;;;;;;0.95;0.80;;;15.90;99.90;;;;;;5006132;28;20030;-80
2022/09/08 07:25:25;;;;;;;1.60;0.88;;;15.90;99.90;;;;;;5005855;28;20034;-79
2022/09/08 07:28:11;;;;;;;1.38;0.88;;;15.90;99.90;;;;;;5002762;28;20121;-80
2022/09/08 07:30:43;;;;;;;1.83;0.80;;;15.80;99.90;;;;;;5009102;28;21214;-80
2022/09/08 07:33:22;;;;;;;0.70;0.70;;;15.90;99.90;;;;;;5008926;28;20026;-80
2022/09/08 07:35:50;;;;;;;0.80;0.80;;;15.90;99.90;;;;;;5010993;28;20022;-83
2022/09/08 07:38:21;;;;;;;;;;;16.00;99.90;;;;;;5008551;28;20124;-84
2022/09/08 07:40:51;;;;;;;0.68;0.68;;;16.00;99.90;;;;;;4991469;28;19952;-81
2022/09/08 07:43:17;;;;;;;2.53;1.00;;;16.00;99.90;;;;;;5007369;28;20029;-82
2022/09/08 07:46:01;;;;;;;1.33;0.82;;;16.10;99.90;;;;;;5006591;28;20032;-82
2022/09/08 07:48:45;;;;;;;1.30;0.77;;;16.20;99.90;;;;;;5007011;28;20033;-82
2022/09/08 07:51:14;;;;;;;0.68;0.68;;;16.20;99.90;;;;;;5008459;28;20045;-82
2022/09/08 07:53:59;;;;;;;1.38;0.90;;;16.30;99.90;;;;;;5008405;28;20038;-82
2022/09/08 07:56:52;;;;;;;0.80;0.80;;;16.40;99.90;;;;;;5007307;28;20487;-82
2022/09/08 07:59:32;;;;;;;2.92;1.05;;;16.30;99.90;;;;;;4976999;28;20046;-82
2022/09/08 08:02:44;;;;;;;1.20;0.77;;;16.40;99.90;;;;;;5002668;28;20054;-82
2022/09/08 08:05:21;;;;;;;0.90;0.90;;;16.40;99.90;;;;;;4993080;28;20073;-82
2022/09/08 08:07:57;;;;;;;1.00;1.00;;;16.40;99.90;;;;;;5007410;28;20084;-82
2022/09/08 08:10:27;;;;;;;0.88;0.88;;;16.60;99.90;;;;;;5004716;28;20374;-82
2022/09/08 08:13:10;;;;;;;1.33;0.88;;;16.60;99.90;;;;;;5005153;28;20058;-82
2022/09/08 08:15:46;;;;;;;1.10;0.77;;;16.70;99.90;;;;;;5002246;28;20068;-82
2022/09/08 08:18:27;;;;;;;0.82;0.82;;;16.80;99.90;;;;;;5002518;28;20045;-82
2022/09/08 08:20:56;;;;;;;1.33;0.85;;;16.80;99.90;;;;;;5003547;28;20068;-81
2022/09/08 08:23:39;;;;;;;1.30;0.70;;;16.80;99.90;;;;;;5002763;28;20037;-82
2022/09/08 08:26:22;;;;;;;0.68;0.60;;;16.80;99.90;;;;;;5004450;28;20069;-82
2022/09/08 08:28:55;;;;;;;1.00;0.80;;;16.80;99.90;;;;;;5003893;28;20034;-80
2022/09/08 08:31:31;;;;;;;1.20;0.70;;;16.80;99.90;;;;;;5000255;28;20045;-82
2022/09/08 08:34:16;;;;;;;0.70;0.70;;;16.70;99.90;;;;;;5001306;28;20049;-81
2022/09/08 08:36:45;;;;;;;0.70;0.70;;;16.70;99.90;;;;;;4989526;28;20124;-81
2022/09/08 08:39:21;;;;;;;0.73;0.73;;;16.80;99.90;;;;;;5005822;28;20496;-81
2022/09/08 08:41:46;;;;;;;0.77;0.77;;;16.80;99.90;;;;;;4998936;28;20108;-83
2022/09/08 08:44:42;;;;;;;0.70;0.70;;;16.90;99.90;;;;;;5000799;28;20057;-80
2022/09/08 08:47:19;;;;;;;0.75;0.75;;;16.90;99.90;;;;;;5003008;28;20631;-80
2022/09/08 08:49:59;;;;;;;0.70;0.70;;;17.10;99.90;;;;;;5002476;28;20038;-80
2022/09/08 08:53:20;;;;;;;0.65;0.63;;;17.10;99.90;;;;;;5001927;28;20045;-80
2022/09/08 08:55:56;;;;;;;0.70;0.70;;;17.20;99.90;;;;;;4986942;28;20053;-80
2022/09/08 08:58:57;;;;;;;1.45;0.90;;;17.10;99.90;;;;;;5004987;28;20495;-81
2022/09/08 09:01:37;;;;;;;0.60;0.60;;;17.10;99.90;;;;;;5000629;28;20038;-80
2022/09/08 09:05:04;;;;;;;0.82;0.80;;;17.20;99.90;;;;;;5003456;28;20038;-78
2022/09/08 09:07:35;;;;;;;0.50;0.50;;;17.30;99.90;;;;;;4954096;28;20066;-78
2022/09/08 09:10:10;;;;;;;1.23;0.82;;;17.50;99.90;;;;;;4960169;28;20050;-78
2022/09/08 09:12:47;;;;;;;0.98;0.80;;;17.40;99.90;;;;;;4990490;28;20038;-78
2022/09/08 09:15:41;;;;;;;1.60;0.90;;;17.30;99.90;;;;;;5003789;28;21535;-79
2022/09/08 09:18:16;;;;;;;0.82;0.82;;;17.20;99.90;;;;;;5002299;28;20408;-83
2022/09/08 09:21:01;;;;;;;1.00;1.00;;;17.10;99.90;;;;;;4998835;28;20878;-82
2022/09/08 09:23:56;;;;;;;0.80;0.80;;;17.20;99.90;;;;;;5003476;28;20029;-80
2022/09/08 09:26:25;;;;;;;2.25;0.75;;;17.20;99.90;;;;;;4977138;28;21038;-80
2022/09/08 09:29:12;;;;;;;0.98;0.70;;;17.20;99.90;;;;;;5003637;28;20034;-80
2022/09/08 09:32:04;;;;;;;0.80;0.80;;;17.10;99.90;;;;;;4999093;28;20630;-81
2022/09/08 09:35:07;;;;;;;1.02;0.93;;;17.10;99.90;;;;;;5003619;28;20026;-81
2022/09/08 09:38:02;;;;;;;1.08;0.70;;;17.20;99.90;;;;;;5002624;28;20038;-80
2022/09/08 09:40:38;;;;;;;1.60;0.88;;;17.40;99.90;;;;;;5004276;28;20025;-80
2022/09/08 09:43:20;;;;;;;0.75;0.60;;;17.40;99.90;;;;;;5007013;28;20026;-80
2022/09/08 09:46:08;;;;;;;0.80;0.80;;;17.50;99.90;;;;;;5004272;28;20080;-80
2022/09/08 09:48:55;;;;;;;0.73;0.73;;;17.50;99.90;;;;;;5006665;28;20439;-80
2022/09/08 09:51:38;;;;;;;1.17;1.08;;;17.60;99.90;;;;;;5006568;28;20449;-81
2022/09/08 09:54:14;;;;;;;0.80;0.80;;;17.70;99.90;;;;;;5005394;28;20060;-80
2022/09/08 09:57:17;;;;;;;1.88;0.70;;;17.60;99.90;;;;;;5005283;28;20034;-80
2022/09/08 10:00:11;;;;;;;1.35;0.90;;;17.70;99.90;;;;;;5002992;28;20040;-77
2022/09/08 10:03:01;;;;;;;0.98;0.90;;;17.90;99.90;;;;;;5003119;28;20045;-77
2022/09/08 10:05:52;;;;;;;0.80;0.80;;;17.90;99.90;;;;;;5006062;28;20026;-77
2022/09/08 10:08:40;;;;;;;1.10;1.00;;;17.90;99.90;;;;;;5001919;28;20026;-79
2022/09/08 10:12:01;;;;;;;1.05;1.05;;;18.00;99.90;;;;;;5005430;28;20043;-81
2022/09/08 10:14:44;;;;;;;0.90;0.90;;;18.30;99.90;;;;;;4941649;28;20050;-81
2022/09/08 10:17:10;;;;;;;0.77;0.77;;;18.60;99.90;;;;;;4998463;28;20084;-82
2022/09/08 10:20:03;;;;;;;0.93;0.93;;;18.80;99.90;;;;;;5002269;28;20030;-81
2022/09/08 10:22:50;;;;;;;0.98;0.90;;;19.00;99.90;;;;;;5005212;28;20116;-81
2022/09/08 10:25:31;;;;;;;2.30;1.07;;;19.10;99.90;;;;;;5005092;28;20030;-81
2022/09/08 10:28:15;;;;;;;1.08;0.98;;;19.00;99.90;;;;;;5006799;28;20069;-79
2022/09/08 10:31:02;;;;;;;1.05;1.05;;;19.00;99.90;;;;;;5006659;28;20393;-79
2022/09/08 10:34:05;;;;;;;0.85;0.80;;;18.90;99.90;;;;;;5005058;28;20026;-79
2022/09/08 10:36:56;;;;;;;1.13;0.93;;;19.00;99.90;;;;;;5002407;28;20971;-79
2022/09/08 10:39:59;;;;;;;0.90;0.90;;;19.00;99.90;;;;;;5001600;28;20030;-79
2022/09/08 10:42:27;;;;;;;2.45;1.13;;;19.10;99.90;;;;;;5002397;28;20462;-78
2022/09/08 10:45:13;;;;;;;1.10;0.70;;;19.30;99.90;;;;;;5003192;28;20125;-79
2022/09/08 10:48:04;;;;;;;0.88;0.88;;;19.30;99.90;;;;;;5000858;28;20030;-79
2022/09/08 10:50:30;;;;;;;0.60;0.60;;;19.40;99.90;;;;;;5002759;28;20478;-79
2022/09/08 10:53:21;;;;;;;2.05;0.90;;;19.20;99.90;;;;;;4999983;28;20042;-78
2022/09/08 10:56:31;;;;;;;0.82;0.82;;;19.10;99.90;;;;;;5004014;28;20441;-78
2022/09/08 10:59:32;;;;;;;0.90;0.90;;;19.10;99.90;;;;;;4971061;28;20096;-79
2022/09/08 11:02:22;;;;;;;3.78;1.05;;;19.10;99.90;;;;;;4959517;28;20128;-78
2022/09/08 11:05:29;;;;;;;3.15;1.10;;;19.30;99.90;;;;;;4998687;28;20064;-78
2022/09/08 11:08:11;;;;;;;1.17;0.90;;;19.50;99.90;;;;;;5003452;28;20400;-81
2022/09/08 11:11:07;;;;;;;0.80;0.80;;;19.70;99.90;;;;;;5005467;28;20042;-79
2022/09/08 11:13:42;;;;;;;1.15;0.80;;;19.80;99.90;;;;;;5000388;28;20064;-79
2022/09/08 11:16:36;;;;;;;0.88;0.85;;;20.10;99.90;;;;;;5007483;28;20471;-79
2022/09/08 11:19:35;;;;;;;1.05;1.02;;;20.30;99.90;;;;;;5004123;28;20061;-79
2022/09/08 11:22:28;;;;;;;1.65;0.80;;;20.50;99.90;;;;;;5003063;28;20030;-79
2022/09/08 11:25:30;;;;;;;1.02;0.93;;;20.50;99.90;;;;;;5004304;28;20065;-79
2022/09/08 11:28:04;;;;;;;1.55;1.20;;;20.30;99.90;;;;;;5001394;28;20030;-79
2022/09/08 11:30:40;;;;;;;0.88;0.88;;;20.50;99.90;;;;;;4999737;28;20104;-79
2022/09/08 11:33:13;;;;;;;0.80;0.80;;;20.50;99.90;;;;;;5004389;28;20041;-80
2022/09/08 11:36:02;;;;;;;0.73;0.65;;;20.20;99.90;;;;;;5003295;28;20060;-79
2022/09/08 11:38:40;;;;;;;1.98;1.00;;;20.40;99.90;;;;;;4980728;28;20096;-79
2022/09/08 11:41:39;;;;;;;0.80;0.80;;;20.60;99.90;;;;;;5005741;28;20105;-79
2022/09/08 11:44:59;;;;;;;1.58;0.88;;;20.60;99.90;;;;;;5002994;28;20098;-79
2022/09/08 11:47:30;;;;;;;1.25;0.80;;;20.20;99.90;;;;;;4925078;29;20068;-83
2022/09/08 11:50:28;;;;;;;1.02;0.93;;;20.20;99.90;;;;;;4991014;28;20050;-82
2022/09/08 11:53:26;;;;;;;0.70;0.70;;;20.30;99.90;;;;;;5007738;28;20056;-82
2022/09/08 11:56:13;;;;;;;0.82;0.82;;;20.00;99.90;;;;;;5017572;28;20052;-79
2022/09/08 11:59:07;;;;;;;1.50;1.08;;;19.60;99.90;;;;;;5027704;28;20048;-80
2022/09/08 12:01:44;;;;;;;0.80;0.80;;;19.60;99.90;;;;;;5021664;28;20034;-82
2022/09/08 12:04:13;;;;;;;1.00;0.90;;;19.90;99.90;;;;;;5015654;28;20041;-83
2022/09/08 12:06:50;;;;;;;1.80;1.00;;;20.20;99.90;;;;;;4997291;28;20034;-80
2022/09/08 12:09:37;;;;;;;1.10;0.75;;;20.60;99.90;;;;;;5010452;28;20117;-88
2022/09/08 12:12:11;;;;;;;1.03;1.00;;;20.50;99.90;;;;;;5006531;28;20089;-84
2022/09/08 12:14:55;;;;;;;1.25;1.10;;;20.60;99.90;;;;;;5006031;28;20046;-86
2022/09/08 12:17:30;;;;;;;2.25;0.80;;;20.60;99.90;;;;;;5006878;28;20030;-83
2022/09/08 12:20:28;;;;;;;1.08;0.90;;;20.60;99.90;;;;;;5009447;28;20533;-86
2022/09/08 12:23:15;;;;;;;1.05;0.70;;;20.70;98.50;;;;;;5005783;28;20036;-83
2022/09/08 12:25:54;;;;;;;1.60;1.00;;;20.90;98.80;;;;;;4990219;28;20062;-83
2022/09/08 12:28:53;;;;;;;1.73;1.00;;;21.00;99.80;;;;;;5019843;28;20045;-86
2022/09/08 12:31:49;;;;;;;2.78;0.90;;;20.90;99.30;;;;;;5008041;28;20173;-84
2022/09/08 12:34:50;;;;;;;0.95;0.85;;;21.10;95.30;;;;;;5002995;28;20122;-87
2022/09/08 12:37:34;;;;;;;0.75;0.75;;;21.30;99.90;;;;;;5006452;28;20026;-85
2022/09/08 12:40:14;;;;;;;1.55;0.70;;;21.30;91.50;;;;;;5005499;28;20111;-85
2022/09/08 12:43:06;;;;;;;2.25;0.90;;;21.20;94.10;;;;;;5006959;28;20044;-83
2022/09/08 12:46:07;;;;;;;3.05;0.90;;;21.20;94.70;;;;;;5004617;28;20080;-84
2022/09/08 12:48:55;;;;;;;0.85;0.80;;;21.40;91.20;;;;;;4935453;29;20086;-87
2022/09/08 12:51:28;;;;;;;0.73;0.70;;;21.30;91.10;;;;;;5001235;28;20046;-86
2022/09/08 12:54:23;;;;;;;2.95;0.80;;;21.30;91.70;;;;;;5008211;28;20030;-87
2022/09/08 12:56:51;;;;;;;2.80;0.82;;;21.20;93.00;;;;;;5007902;28;20409;-88
2022/09/08 12:59:44;;;;;;;1.95;0.90;;;21.20;93.00;;;;;;5005760;28;20069;-86
2022/09/08 13:02:24;;;;;;;0.77;0.77;;;21.10;92.20;;;;;;5006261;28;20045;-85
2022/09/08 13:05:21;;;;;;;1.52;0.90;;;20.70;88.50;;;;;;5005824;28;20125;-85
2022/09/08 13:07:52;;;;;;;1.05;0.88;;;20.40;93.70;;;;;;5005438;28;20035;-86
2022/09/08 13:10:56;;;;;;;0.85;0.80;;;20.40;94.10;;;;;;5007862;28;20466;-87
2022/09/08 13:13:40;;;;;;;1.88;0.80;;;20.40;93.00;;;;;;4906808;29;20069;-86
2022/09/08 13:16:36;;;;;;;1.02;0.90;;;20.30;94.00;;;;;;4912132;29;20032;-85
2022/09/08 13:19:08;;;;;;;1.55;0.70;;;20.50;95.10;;;;;;4989374;28;20054;-87
2022/09/08 13:21:40;;;;;;;0.70;0.70;;;20.90;95.00;;;;;;5012898;28;20026;-87
2022/09/08 13:24:17;;;;;;;1.48;0.88;;;20.90;92.40;;;;;;5009306;28;20570;-87
2022/09/08 13:27:07;;;;;;;1.50;1.10;;;21.10;94.40;;;;;;5011895;28;20112;-86
2022/09/08 13:30:14;;;;;;;1.10;1.00;;;21.00;92.60;;;;;;5006361;28;20124;-86
2022/09/08 13:33:00;;;;;;;0.90;0.90;;;20.60;94.90;;;;;;4989007;28;20085;-86
2022/09/08 13:35:28;;;;;;;0.68;0.60;;;20.40;95.30;;;;;;5011649;28;20053;-86
2022/09/08 13:38:31;;;;;;;1.00;0.80;;;20.30;92.00;;;;;;5006935;28;20125;-86
2022/09/08 13:41:22;;;;;;;0.70;0.52;;;20.50;95.00;;;;;;5011626;28;20072;-84
2022/09/08 13:44:06;;;;;;;0.73;0.73;;;20.80;93.50;;;;;;5006202;28;20029;-87
2022/09/08 13:46:53;;;;;;;1.63;0.85;;;21.10;93.10;;;;;;5011718;28;20157;-86